createdAt,value
2022-10-16T00:01:13.993Z,22.27
2022-10-16T00:03:42.424Z,22.29
2022-10-16T00:06:10.004Z,22.32
2022-10-16T00:08:37.327Z,22.32
2022-10-16T00:11:09.770Z,22.29
2022-10-16T00:13:38.355Z,22.30
2022-10-16T00:16:05.480Z,22.25
2022-10-16T00:18:32.259Z,22.30
2022-10-16T00:21:10.770Z,22.28
2022-10-16T00:23:37.934Z,22.28
2022-10-16T00:26:14.052Z,22.27
2022-10-16T00:28:41.127Z,22.22
2022-10-16T00:31:10.177Z,22.23
2022-10-16T00:33:38.104Z,22.23
2022-10-16T00:36:06.039Z,22.26
2022-10-16T00:38:32.699Z,22.27
2022-10-16T00:40:59.266Z,22.26
2022-10-16T00:43:54.134Z,22.27
2022-10-16T00:46:25.670Z,22.24
2022-10-16T00:49:01.619Z,22.29
2022-10-16T00:51:39.767Z,22.26
2022-10-16T00:54:12.756Z,22.25
2022-10-16T00:56:39.429Z,22.25
2022-10-16T00:59:12.681Z,22.22
2022-10-16T01:01:39.230Z,22.24
2022-10-16T01:04:05.808Z,22.21
2022-10-16T01:06:50.259Z,22.21
2022-10-16T01:09:22.521Z,22.18
2022-10-16T01:11:55.105Z,22.18
2022-10-16T01:14:40.963Z,22.24
2022-10-16T01:17:33.753Z,22.22
2022-10-16T01:20:19.186Z,22.22
2022-10-16T01:23:05.264Z,22.23
2022-10-16T01:25:50.192Z,22.23
2022-10-16T01:28:20.051Z,22.21
2022-10-16T01:30:48.453Z,22.21
2022-10-16T01:33:23.861Z,22.23
2022-10-16T01:35:59.199Z,22.22
2022-10-16T01:38:32.743Z,22.24
2022-10-16T01:41:05.663Z,22.22
2022-10-16T01:43:41.725Z,22.20
2022-10-16T01:46:11.319Z,22.21
2022-10-16T01:48:38.965Z,22.19
2022-10-16T01:51:10.833Z,22.21
2022-10-16T01:53:38.415Z,22.18
2022-10-16T01:56:08.586Z,22.16
2022-10-16T01:58:38.979Z,22.15
2022-10-16T02:01:08.667Z,22.17
2022-10-16T02:03:38.270Z,22.20
2022-10-16T02:06:04.887Z,22.17
2022-10-16T02:08:32.147Z,22.16
2022-10-16T02:11:00.913Z,22.16
2022-10-16T02:13:36.828Z,22.17
2022-10-16T02:16:03.727Z,22.16
2022-10-16T02:18:31.779Z,22.15
2022-10-16T02:21:30.129Z,22.15
2022-10-16T02:24:33.679Z,22.15
2022-10-16T02:27:27.812Z,22.12
2022-10-16T02:30:00.462Z,22.11
2022-10-16T02:32:32.855Z,22.12
2022-10-16T02:35:01.142Z,22.12
2022-10-16T02:37:28.683Z,22.15
2022-10-16T02:39:58.061Z,22.11
2022-10-16T02:42:31.061Z,22.14
2022-10-16T02:44:57.634Z,22.17
2022-10-16T02:47:24.204Z,22.16
2022-10-16T02:49:50.822Z,22.16
2022-10-16T02:52:17.423Z,22.19
2022-10-16T02:54:43.987Z,22.19
2022-10-16T02:57:10.606Z,22.16
2022-10-16T02:59:37.152Z,22.20
2022-10-16T03:02:03.946Z,22.17
2022-10-16T03:04:30.528Z,22.18
2022-10-16T03:06:57.128Z,22.19
2022-10-16T03:09:23.693Z,22.21
2022-10-16T03:11:50.419Z,22.21
2022-10-16T03:14:17.038Z,22.22
2022-10-16T03:16:43.685Z,22.20
2022-10-16T03:19:10.255Z,22.22
2022-10-16T03:21:36.877Z,22.20
2022-10-16T03:24:03.736Z,22.21
2022-10-16T03:26:30.337Z,22.21
2022-10-16T03:28:56.924Z,22.21
2022-10-16T03:31:23.505Z,22.22
2022-10-16T03:33:50.061Z,22.20
2022-10-16T03:36:16.868Z,22.20
2022-10-16T03:38:43.449Z,22.22
2022-10-16T03:41:10.024Z,22.22
2022-10-16T03:43:36.892Z,22.20
2022-10-16T03:46:03.497Z,22.19
2022-10-16T03:48:30.570Z,22.18
2022-10-16T03:50:57.168Z,22.20
2022-10-16T03:53:23.728Z,22.20
2022-10-16T03:55:50.304Z,22.22
2022-10-16T03:58:17.555Z,22.18
2022-10-16T04:00:45.427Z,22.19
2022-10-16T04:03:12.327Z,22.19
2022-10-16T04:05:39.911Z,22.20
2022-10-16T04:08:07.188Z,22.20
2022-10-16T04:10:33.742Z,22.19
2022-10-16T04:13:00.303Z,22.20
2022-10-16T04:15:26.978Z,22.20
2022-10-16T04:17:53.819Z,22.21
2022-10-16T04:20:20.638Z,22.22
2022-10-16T04:22:47.207Z,22.22
2022-10-16T04:25:13.768Z,22.20
2022-10-16T04:27:42.332Z,22.25
2022-10-16T04:30:12.006Z,22.23
2022-10-16T04:32:38.570Z,22.19
2022-10-16T04:35:05.497Z,22.20
2022-10-16T04:37:32.080Z,22.20
2022-10-16T04:39:58.657Z,22.23
2022-10-16T04:42:25.366Z,22.24
2022-10-16T04:44:51.909Z,22.20
2022-10-16T04:47:18.487Z,22.20
2022-10-16T04:49:45.125Z,22.20
2022-10-16T04:52:11.738Z,22.16
2022-10-16T04:54:38.271Z,22.18
2022-10-16T04:57:05.924Z,22.18
2022-10-16T04:59:32.710Z,22.14
2022-10-16T05:01:59.303Z,22.12
2022-10-16T05:04:25.870Z,22.15
2022-10-16T05:06:52.423Z,22.14
2022-10-16T05:09:18.976Z,22.13
2022-10-16T05:11:45.532Z,22.13
2022-10-16T05:14:12.119Z,22.14
2022-10-16T05:16:38.818Z,22.11
2022-10-16T05:19:26.284Z,22.10
2022-10-16T05:21:52.270Z,22.13
2022-10-16T05:24:18.838Z,22.12
2022-10-16T05:26:45.420Z,22.09
2022-10-16T05:29:11.990Z,22.08
2022-10-16T05:31:38.693Z,22.09
2022-10-16T05:34:05.294Z,22.11
2022-10-16T05:36:31.857Z,22.11
2022-10-16T05:38:58.413Z,22.14
2022-10-16T05:41:27.107Z,22.15
2022-10-16T05:43:54.301Z,22.11
2022-10-16T05:46:21.085Z,22.18
2022-10-16T05:48:47.696Z,22.21
2022-10-16T05:51:15.773Z,22.20
2022-10-16T05:56:14.289Z,22.37
2022-10-16T05:58:45.530Z,22.45
2022-10-16T06:01:19.802Z,22.48
2022-10-16T06:03:46.509Z,22.57
2022-10-16T06:06:15.873Z,22.59
2022-10-16T06:08:44.052Z,22.58
2022-10-16T06:11:16.365Z,22.66
2022-10-16T06:13:43.657Z,22.54
2022-10-16T06:16:11.692Z,22.49
2022-10-16T06:18:38.439Z,22.49
2022-10-16T06:21:27.973Z,22.54
2022-10-16T06:23:56.082Z,22.47
2022-10-16T06:26:25.677Z,22.47
2022-10-16T06:28:52.714Z,22.40
2022-10-16T06:31:19.422Z,22.36
2022-10-16T06:33:47.991Z,22.36
2022-10-16T06:36:16.931Z,22.42
2022-10-16T06:38:44.443Z,22.45
2022-10-16T06:41:14.020Z,22.50
2022-10-16T06:43:40.659Z,22.54
2022-10-16T06:46:10.262Z,22.48
2022-10-16T06:48:37.401Z,22.48
2022-10-16T06:51:09.372Z,22.49
2022-10-16T06:53:39.723Z,22.50
2022-10-16T06:56:11.594Z,22.50
2022-10-16T06:58:38.979Z,22.51
2022-10-16T07:01:06.485Z,22.50
2022-10-16T07:03:33.447Z,22.51
2022-10-16T07:06:07.034Z,22.50
2022-10-16T07:08:42.141Z,22.47
2022-10-16T07:11:11.823Z,22.50
2022-10-16T07:13:41.138Z,22.52
2022-10-16T07:16:10.499Z,22.52
2022-10-16T07:18:37.759Z,22.58
2022-10-16T07:21:17.183Z,22.57
2022-10-16T07:23:44.492Z,22.54
2022-10-16T07:26:11.963Z,22.60
2022-10-16T07:28:40.331Z,22.58
2022-10-16T07:31:11.796Z,22.57
2022-10-16T07:33:39.630Z,22.57
2022-10-16T07:36:06.966Z,22.58
2022-10-16T07:38:33.748Z,22.61
2022-10-16T07:41:05.550Z,22.57
2022-10-16T07:43:32.797Z,22.53
2022-10-16T07:46:01.371Z,22.51
2022-10-16T07:48:33.040Z,22.54
2022-10-16T07:51:01.282Z,22.52
2022-10-16T07:53:28.582Z,22.54
2022-10-16T07:56:02.967Z,22.89
2022-10-16T07:58:30.059Z,22.83
2022-10-16T08:00:57.699Z,22.77
2022-10-16T08:03:25.290Z,22.94
2022-10-16T08:05:52.530Z,23.32
2022-10-16T08:08:20.023Z,22.95
2022-10-16T08:10:46.585Z,22.84
2022-10-16T08:13:16.228Z,22.81
2022-10-16T08:15:44.219Z,22.71
2022-10-16T08:18:12.446Z,22.67
2022-10-16T08:20:39.686Z,22.70
2022-10-16T08:23:06.785Z,22.71
2022-10-16T08:25:35.603Z,22.63
2022-10-16T08:28:05.513Z,22.59
2022-10-16T08:30:33.058Z,22.59
2022-10-16T08:32:59.970Z,22.61
2022-10-16T08:35:26.614Z,22.58
2022-10-16T08:37:53.161Z,22.55
2022-10-16T08:43:24.681Z,22.53
2022-10-16T08:46:03.308Z,22.62
2022-10-16T08:48:49.159Z,22.65
2022-10-16T08:51:25.836Z,22.66
2022-10-16T08:53:55.177Z,22.71
2022-10-16T08:56:22.132Z,22.77
2022-10-16T08:58:49.235Z,22.95
2022-10-16T09:01:17.972Z,22.92
2022-10-16T09:03:44.577Z,22.99
2022-10-16T09:06:29.554Z,22.93
2022-10-16T09:08:58.944Z,22.96
2022-10-16T09:11:46.308Z,22.87
2022-10-16T09:14:27.758Z,22.74
2022-10-16T09:17:02.278Z,22.66
2022-10-16T09:19:38.986Z,22.62
2022-10-16T09:22:17.013Z,22.64
2022-10-16T09:24:43.894Z,22.73
2022-10-16T09:27:15.728Z,23.07
2022-10-16T09:29:42.389Z,23.70
2022-10-16T09:32:18.441Z,23.43
2022-10-16T09:34:50.854Z,23.37
2022-10-16T09:37:23.660Z,23.01
2022-10-16T09:39:55.029Z,23.07
2022-10-16T09:42:25.620Z,23.58
2022-10-16T09:44:54.542Z,23.51
2022-10-16T09:47:25.299Z,25.24
2022-10-16T09:49:58.830Z,26.29
2022-10-16T09:52:25.764Z,26.97
2022-10-16T09:54:57.970Z,24.93
2022-10-16T09:57:25.641Z,24.74
2022-10-16T09:59:57.133Z,24.38
2022-10-16T10:02:35.265Z,24.19
2022-10-16T10:05:02.778Z,23.86
2022-10-16T10:07:36.005Z,24.61
2022-10-16T10:10:06.399Z,24.13
2022-10-16T10:12:35.849Z,23.89
2022-10-16T10:15:08.649Z,23.61
2022-10-16T10:17:45.744Z,23.43
2022-10-16T10:20:36.133Z,23.46
2022-10-16T10:23:22.971Z,23.53
2022-10-16T10:25:54.988Z,23.47
2022-10-16T10:28:39.758Z,23.32
2022-10-16T10:31:24.252Z,23.35
2022-10-16T10:34:03.450Z,23.28
2022-10-16T10:36:37.654Z,23.31
2022-10-16T10:39:18.469Z,23.38
2022-10-16T10:42:09.984Z,23.50
2022-10-16T10:44:58.197Z,23.60
2022-10-16T10:47:43.541Z,23.60
2022-10-16T10:50:27.797Z,23.63
2022-10-16T10:53:14.522Z,23.55
2022-10-16T10:55:47.104Z,23.60
2022-10-16T10:58:42.504Z,23.61
2022-10-16T11:01:15.058Z,23.55
2022-10-16T11:03:58.551Z,23.51
2022-10-16T11:06:31.546Z,23.51
2022-10-16T11:09:10.174Z,23.48
2022-10-16T11:11:50.773Z,23.52
2022-10-16T11:14:25.032Z,23.58
2022-10-16T11:17:12.231Z,23.63
2022-10-16T11:19:53.616Z,23.61
2022-10-16T11:22:33.120Z,23.50
2022-10-16T11:25:20.990Z,23.60
2022-10-16T11:27:57.869Z,23.62
2022-10-16T11:30:33.596Z,23.57
2022-10-16T11:33:09.267Z,23.52
2022-10-16T11:35:45.362Z,23.61
2022-10-16T11:38:20.362Z,23.60
2022-10-16T11:40:51.449Z,23.65
2022-10-16T11:43:21.776Z,23.62
2022-10-16T11:45:55.218Z,23.52
2022-10-16T11:48:31.434Z,23.57
2022-10-16T11:51:18.297Z,23.60
2022-10-16T11:53:52.184Z,23.73
2022-10-16T11:56:21.040Z,23.90
2022-10-16T11:58:56.534Z,23.80
2022-10-16T12:01:53.008Z,23.69
2022-10-16T12:04:25.313Z,23.71
2022-10-16T12:07:25.321Z,24.35
2022-10-16T12:09:51.881Z,24.30
2022-10-16T12:12:31.439Z,24.85
2022-10-16T12:15:25.808Z,24.68
2022-10-16T12:17:49.439Z,24.28
2022-10-16T12:20:15.976Z,24.51
2022-10-16T12:22:55.432Z,25.00
2022-10-16T12:25:29.879Z,25.75
2022-10-16T12:28:21.253Z,27.18
2022-10-16T12:30:59.174Z,27.40
2022-10-16T12:33:31.946Z,27.24
2022-10-16T12:36:03.212Z,27.23
2022-10-16T12:38:39.644Z,26.54
2022-10-16T12:41:09.499Z,26.73
2022-10-16T12:43:38.261Z,27.00
2022-10-16T12:46:10.910Z,27.14
2022-10-16T12:48:48.911Z,27.08
2022-10-16T12:51:26.451Z,27.23
2022-10-16T12:54:18.070Z,27.21
2022-10-16T12:57:08.608Z,27.21
2022-10-16T12:59:53.925Z,27.25
2022-10-16T13:02:42.530Z,27.15
2022-10-16T13:05:30.907Z,27.16
2022-10-16T13:08:03.598Z,27.31
2022-10-16T13:10:36.882Z,27.24
2022-10-16T13:13:21.694Z,27.24
2022-10-16T13:16:00.238Z,27.38
2022-10-16T13:18:55.464Z,27.31
2022-10-16T13:21:52.029Z,27.16
2022-10-16T13:24:55.418Z,27.19
2022-10-16T13:27:34.063Z,27.21
2022-10-16T13:30:30.740Z,27.24
2022-10-16T13:33:07.683Z,27.20
2022-10-16T13:35:36.300Z,27.19
2022-10-16T13:38:18.475Z,27.13
2022-10-16T13:41:05.790Z,27.21
2022-10-16T13:43:42.411Z,27.30
2022-10-16T13:46:20.453Z,27.40
2022-10-16T13:49:13.671Z,27.46
2022-10-16T13:51:40.256Z,27.42
2022-10-16T13:54:10.287Z,27.44
2022-10-16T13:56:36.878Z,27.47
2022-10-16T13:59:23.271Z,27.50
2022-10-16T14:01:53.001Z,27.60
2022-10-16T14:04:19.755Z,27.58
2022-10-16T14:06:49.836Z,27.62
2022-10-16T14:09:21.975Z,27.53
2022-10-16T14:11:58.951Z,27.54
2022-10-16T14:14:27.707Z,27.52
2022-10-16T14:16:54.287Z,27.61
2022-10-16T14:19:29.426Z,27.53
2022-10-16T14:21:57.093Z,27.52
2022-10-16T14:24:32.141Z,27.54
2022-10-16T14:26:59.477Z,27.51
2022-10-16T14:29:28.425Z,27.57
2022-10-16T14:32:02.914Z,27.52
2022-10-16T14:34:33.845Z,27.07
2022-10-16T14:37:29.237Z,26.84
2022-10-16T14:39:57.861Z,26.82
2022-10-16T14:42:26.547Z,26.68
2022-10-16T14:44:55.757Z,26.58
2022-10-16T14:47:26.766Z,26.69
2022-10-16T14:50:00.000Z,26.77
2022-10-16T14:52:26.653Z,26.74
2022-10-16T14:54:57.431Z,26.71
2022-10-16T14:57:28.320Z,26.56
2022-10-16T14:59:55.225Z,26.33
2022-10-16T15:02:26.297Z,26.15
2022-10-16T15:04:52.865Z,26.11
2022-10-16T15:07:19.702Z,25.74
2022-10-16T15:09:49.096Z,25.68
2022-10-16T15:12:17.177Z,25.55
2022-10-16T15:14:44.002Z,25.27
2022-10-16T15:17:12.366Z,25.14
2022-10-16T15:19:39.474Z,24.90
2022-10-16T15:22:06.049Z,24.70
2022-10-16T15:24:32.631Z,24.78
2022-10-16T15:26:59.241Z,24.74
2022-10-16T15:29:25.805Z,24.71
2022-10-16T15:31:52.483Z,24.66
2022-10-16T15:34:20.527Z,24.46
2022-10-16T15:36:47.165Z,24.35
2022-10-16T15:39:19.576Z,24.28
2022-10-16T15:41:52.336Z,24.13
2022-10-16T15:44:19.195Z,24.15
2022-10-16T15:46:45.858Z,24.12
2022-10-16T15:49:12.976Z,24.11
2022-10-16T15:51:41.303Z,24.01
2022-10-16T15:54:08.421Z,24.06
2022-10-16T15:56:35.096Z,23.98
2022-10-16T15:59:02.915Z,23.91
2022-10-16T16:01:30.510Z,23.81
2022-10-16T16:03:57.200Z,23.80
2022-10-16T16:06:26.869Z,23.78
2022-10-16T16:08:54.507Z,23.71
2022-10-16T16:11:21.832Z,23.64
2022-10-16T16:13:48.471Z,23.60
2022-10-16T16:16:16.975Z,23.60
2022-10-16T16:18:44.165Z,23.58
2022-10-16T16:21:14.302Z,23.56
2022-10-16T16:23:40.899Z,23.46
2022-10-16T16:26:16.796Z,23.40
2022-10-16T16:28:44.270Z,23.40
2022-10-16T16:31:11.297Z,23.37
2022-10-16T16:33:37.891Z,23.32
2022-10-16T16:36:11.546Z,23.25
2022-10-16T16:38:41.221Z,23.20
2022-10-16T16:41:19.350Z,23.22
2022-10-16T16:43:46.209Z,23.24
2022-10-16T16:46:12.973Z,23.20
2022-10-16T16:48:39.767Z,23.20
2022-10-16T16:51:08.288Z,23.10
2022-10-16T16:53:36.057Z,23.11
2022-10-16T16:56:06.967Z,23.10
2022-10-16T16:58:34.111Z,23.09
2022-10-16T17:01:19.377Z,23.04
2022-10-16T17:03:47.477Z,23.01
2022-10-16T17:06:20.520Z,22.97
2022-10-16T17:08:47.939Z,22.98
2022-10-16T17:11:16.895Z,22.92
2022-10-16T17:13:43.557Z,22.95
2022-10-16T17:16:10.402Z,23.01
2022-10-16T17:18:37.156Z,22.99
2022-10-16T17:21:07.258Z,22.99
2022-10-16T17:23:34.754Z,23.00
2022-10-16T17:26:10.972Z,23.02
2022-10-16T17:28:37.729Z,23.06
2022-10-16T17:31:13.555Z,23.09
2022-10-16T17:33:40.835Z,23.10
2022-10-16T17:36:08.288Z,23.09
2022-10-16T17:38:35.642Z,23.08
2022-10-16T17:41:18.381Z,23.13
2022-10-16T17:43:45.672Z,23.13
2022-10-16T17:46:13.738Z,23.03
2022-10-16T17:48:41.901Z,23.06
2022-10-16T17:51:11.259Z,23.10
2022-10-16T17:53:38.524Z,23.14
2022-10-16T17:56:07.901Z,23.09
2022-10-16T17:58:34.756Z,23.10
2022-10-16T18:01:01.951Z,23.07
2022-10-16T18:03:28.949Z,23.07
2022-10-16T18:05:55.916Z,23.07
2022-10-16T18:08:26.340Z,23.07
2022-10-16T18:10:55.405Z,23.02
2022-10-16T18:13:22.108Z,23.03
2022-10-16T18:16:00.749Z,23.05
2022-10-16T18:18:29.635Z,23.05
2022-10-16T18:21:01.134Z,23.07
2022-10-16T18:23:28.917Z,23.05
2022-10-16T18:25:56.316Z,23.02
2022-10-16T18:28:23.177Z,22.99
2022-10-16T18:31:01.452Z,22.97
2022-10-16T18:33:30.852Z,23.02
2022-10-16T18:36:01.583Z,23.02
2022-10-16T18:38:29.092Z,23.04
2022-10-16T18:40:55.657Z,23.03
2022-10-16T18:43:22.249Z,23.00
2022-10-16T18:45:56.884Z,22.95
2022-10-16T18:48:23.762Z,22.98
2022-10-16T18:50:50.318Z,22.96
2022-10-16T18:53:16.964Z,22.96
2022-10-16T18:55:43.570Z,22.98
2022-10-16T18:58:10.224Z,22.99
2022-10-16T19:00:36.802Z,23.01
2022-10-16T19:03:03.387Z,23.03
2022-10-16T19:05:29.961Z,23.04
2022-10-16T19:07:56.526Z,23.01
2022-10-16T19:10:23.102Z,23.05
2022-10-16T19:12:49.666Z,23.01
2022-10-16T19:15:16.429Z,23.03
2022-10-16T19:17:43.046Z,22.98
2022-10-16T19:20:09.950Z,22.97
2022-10-16T19:22:53.943Z,22.95
2022-10-16T19:25:23.656Z,22.97
2022-10-16T19:27:51.558Z,22.91
2022-10-16T19:30:19.491Z,22.92
2022-10-16T19:32:46.445Z,22.93
2022-10-16T19:35:12.994Z,22.89
2022-10-16T19:37:39.802Z,22.88
2022-10-16T19:40:07.023Z,22.86
2022-10-16T19:42:33.685Z,22.86
2022-10-16T19:45:00.245Z,22.90
2022-10-16T19:47:27.026Z,22.89
2022-10-16T19:49:54.380Z,22.85
2022-10-16T19:52:22.306Z,22.87
2022-10-16T19:54:49.001Z,22.82
2022-10-16T19:57:15.659Z,22.83
2022-10-16T19:59:44.924Z,22.84
2022-10-16T20:02:12.468Z,22.83
2022-10-16T20:04:39.092Z,22.82
2022-10-16T20:07:05.900Z,22.81
2022-10-16T20:09:33.400Z,22.84
2022-10-16T20:12:00.042Z,22.83
2022-10-16T20:14:26.934Z,22.84
2022-10-16T20:16:53.508Z,22.81
2022-10-16T20:19:20.217Z,22.81
2022-10-16T20:21:46.783Z,22.81
2022-10-16T20:24:13.425Z,22.83
2022-10-16T20:26:40.057Z,22.81
2022-10-16T20:29:07.679Z,22.83
2022-10-16T20:31:34.819Z,22.78
2022-10-16T20:34:11.282Z,22.80
2022-10-16T20:36:42.569Z,22.79
2022-10-16T20:39:09.447Z,22.79
2022-10-16T20:41:36.669Z,22.79
2022-10-16T20:44:03.851Z,22.78
2022-10-16T20:46:30.548Z,22.82
2022-10-16T20:49:06.111Z,22.82
2022-10-16T20:51:44.029Z,22.80
2022-10-16T20:54:11.322Z,22.80
2022-10-16T20:56:37.945Z,22.80
2022-10-16T20:59:05.174Z,22.75
2022-10-16T21:01:32.028Z,22.77
2022-10-16T21:04:01.841Z,22.76
2022-10-16T21:06:30.925Z,22.75
2022-10-16T21:08:59.748Z,22.76
2022-10-16T21:11:27.624Z,22.76
2022-10-16T21:13:57.313Z,22.75
2022-10-16T21:16:24.977Z,22.73
2022-10-16T21:18:53.121Z,22.73
2022-10-16T21:21:25.255Z,22.76
2022-10-16T21:23:52.797Z,22.78
2022-10-16T21:26:26.056Z,22.77
2022-10-16T21:28:56.072Z,22.75
2022-10-16T21:31:22.951Z,22.76
2022-10-16T21:33:50.381Z,22.74
2022-10-16T21:36:32.875Z,22.73
2022-10-16T21:39:05.092Z,22.75
2022-10-16T21:41:32.172Z,22.73
2022-10-16T21:43:59.232Z,22.73
2022-10-16T21:46:28.820Z,22.71
2022-10-16T21:48:57.285Z,22.72
2022-10-16T21:51:28.753Z,22.69
2022-10-16T21:53:55.701Z,22.72
2022-10-16T21:56:23.334Z,22.72
2022-10-16T21:58:49.916Z,22.75
2022-10-16T22:01:19.031Z,22.79
2022-10-16T22:03:46.280Z,22.79
2022-10-16T22:06:14.883Z,22.82
2022-10-16T22:08:42.223Z,22.82
2022-10-16T22:11:14.548Z,22.87
2022-10-16T22:13:42.120Z,22.87
2022-10-16T22:16:09.401Z,22.89
2022-10-16T22:18:37.699Z,22.90
2022-10-16T22:21:06.470Z,22.90
2022-10-16T22:23:33.052Z,22.90
2022-10-16T22:26:01.393Z,22.91
2022-10-16T22:28:28.237Z,22.92
2022-10-16T22:30:54.960Z,22.92
2022-10-16T22:33:21.548Z,22.92
2022-10-16T22:35:48.159Z,22.91
2022-10-16T22:38:14.720Z,22.93
2022-10-16T22:40:41.573Z,22.92
2022-10-16T22:43:08.172Z,22.92
2022-10-16T22:45:35.765Z,22.93
2022-10-16T22:48:03.983Z,22.92
2022-10-16T22:50:30.845Z,22.91
2022-10-16T22:52:57.409Z,22.93
2022-10-16T22:55:24.060Z,22.91
2022-10-16T22:57:50.899Z,22.94
2022-10-16T23:00:19.687Z,22.94
2022-10-16T23:02:46.403Z,22.89
2022-10-16T23:05:13.119Z,22.93
2022-10-16T23:07:39.691Z,22.91
2022-10-16T23:10:07.594Z,22.94
2022-10-16T23:12:35.708Z,22.93
2022-10-16T23:15:02.442Z,22.92
2022-10-16T23:17:28.996Z,22.93
2022-10-16T23:19:55.774Z,22.92
2022-10-16T23:22:22.393Z,22.92
2022-10-16T23:24:48.957Z,22.92
2022-10-16T23:27:15.534Z,22.95
2022-10-16T23:29:42.078Z,22.94
2022-10-16T23:32:08.644Z,22.94
2022-10-16T23:34:35.220Z,22.93
2022-10-16T23:37:03.748Z,22.87
2022-10-16T23:39:30.352Z,22.96
2022-10-16T23:41:56.962Z,22.92
2022-10-16T23:44:23.592Z,22.94
2022-10-16T23:46:50.154Z,22.96
2022-10-16T23:49:16.752Z,22.94
2022-10-16T23:51:43.298Z,22.93
2022-10-16T23:54:10.048Z,22.95
2022-10-16T23:56:36.641Z,22.93
2022-10-16T23:59:03.743Z,22.91
